Time;durP1;ratioP1;P1;durP2;ratioP2;P2;SDS_P1;SDS_P2;PMS_P1;PMS_P2;Temp;Humidity;BMP_temperature;BMP_pressure;BME280_temperature;BME280_humidity;BME280_pressure;Samples;Min_cycle;Max_cycle;Signal;HPM_P1;HPM_P2
2021/08/06 00:01:14;;;;;;;4.38;1.85;;;17.70;99.90;;;;;;5054050;28;20145;-70
2021/08/06 00:03:40;;;;;;;6.22;2.75;;;17.60;99.90;;;;;;5052895;28;20043;-70
2021/08/06 00:06:06;;;;;;;4.13;2.70;;;17.70;99.90;;;;;;5053869;28;20162;-70
2021/08/06 00:08:32;;;;;;;2.97;2.17;;;17.80;99.90;;;;;;5052719;28;20094;-70
2021/08/06 00:10:58;;;;;;;3.95;2.42;;;17.90;99.90;;;;;;5035979;28;20029;-70
2021/08/06 00:13:24;;;;;;;4.38;2.67;;;18.00;99.90;;;;;;5054222;28;20025;-70
2021/08/06 00:15:49;;;;;;;5.65;2.72;;;18.00;99.90;;;;;;5054216;28;20470;-70
2021/08/06 00:18:15;;;;;;;3.65;2.47;;;18.00;99.90;;;;;;5053380;28;20394;-70
2021/08/06 00:20:41;;;;;;;4.20;2.45;;;18.00;99.90;;;;;;5053752;28;20025;-70
2021/08/06 00:23:07;;;;;;;5.03;2.80;;;18.00;99.90;;;;;;5052427;28;20104;-70
2021/08/06 00:25:33;;;;;;;5.90;2.40;;;18.00;99.90;;;;;;5054040;28;20032;-70
2021/08/06 00:27:59;;;;;;;3.83;2.22;;;17.90;99.90;;;;;;5052247;28;20068;-70
2021/08/06 00:30:26;;;;;;;5.30;2.65;;;18.00;99.90;;;;;;5052780;28;20447;-70
2021/08/06 00:32:52;;;;;;;2.78;2.00;;;18.00;99.90;;;;;;5053509;28;20449;-70
2021/08/06 00:35:19;;;;;;;3.35;1.85;;;18.00;99.90;;;;;;5053442;28;20029;-70
2021/08/06 00:37:45;;;;;;;3.67;2.20;;;17.90;99.90;;;;;;5053355;28;20033;-70
2021/08/06 00:40:11;;;;;;;4.50;2.33;;;17.80;99.90;;;;;;5052131;28;20033;-70
2021/08/06 00:42:37;;;;;;;4.10;2.45;;;17.80;99.90;;;;;;5052185;28;20048;-70
2021/08/06 00:45:05;;;;;;;2.72;1.70;;;17.80;99.90;;;;;;5052070;28;20029;-70
2021/08/06 00:47:33;;;;;;;2.25;1.38;;;17.80;99.90;;;;;;5051975;28;20521;-70
2021/08/06 00:49:59;;;;;;;2.38;1.42;;;17.80;99.90;;;;;;5052042;28;20033;-70
2021/08/06 00:52:25;;;;;;;2.55;1.33;;;17.90;99.90;;;;;;5051901;28;20052;-70
2021/08/06 00:54:51;;;;;;;2.28;1.30;;;17.90;99.90;;;;;;5052244;28;20043;-70
2021/08/06 00:57:18;;;;;;;1.80;1.10;;;17.90;99.90;;;;;;5051568;28;20025;-70
2021/08/06 00:59:44;;;;;;;3.83;1.27;;;17.90;99.90;;;;;;5053143;28;20113;-70
2021/08/06 01:02:38;;;;;;;4.80;1.17;;;17.80;99.90;;;;;;5034982;28;20119;-70
2021/08/06 01:05:14;;;;;;;2.28;0.90;;;17.80;99.90;;;;;;5036036;28;20037;-70
2021/08/06 01:08:03;;;;;;;3.97;1.30;;;17.90;99.90;;;;;;5051938;28;20027;-70
2021/08/06 01:11:01;;;;;;;2.10;1.10;;;17.90;99.90;;;;;;5052878;28;20037;-70
2021/08/06 01:13:48;;;;;;;2.35;1.40;;;17.90;99.90;;;;;;5052732;28;20508;-70
2021/08/06 01:16:15;;;;;;;2.30;1.10;;;17.80;99.90;;;;;;5052643;28;20397;-70
2021/08/06 01:19:08;;;;;;;3.22;1.13;;;17.80;99.90;;;;;;5051600;28;20556;-70
2021/08/06 01:21:45;;;;;;;1.95;1.20;;;17.70;99.90;;;;;;5032681;28;20409;-70
2021/08/06 01:24:20;;;;;;;2.35;1.10;;;17.60;99.90;;;;;;5051120;28;20025;-70
2021/08/06 01:26:47;;;;;;;3.35;1.55;;;17.70;99.90;;;;;;5051432;28;20035;-70
2021/08/06 01:29:14;;;;;;;4.32;1.58;;;17.50;99.90;;;;;;5051129;28;20120;-71
2021/08/06 01:31:42;;;;;;;2.58;1.58;;;17.30;99.90;;;;;;5051352;28;20438;-70
2021/08/06 01:34:08;;;;;;;4.40;2.05;;;17.30;99.90;;;;;;5051332;28;20115;-70
2021/08/06 01:36:34;;;;;;;3.08;1.48;;;17.30;99.90;;;;;;5052380;28;20120;-70
2021/08/06 01:39:00;;;;;;;3.60;1.80;;;17.20;99.90;;;;;;5052394;28;20143;-70
2021/08/06 01:41:49;;;;;;;2.63;1.65;;;17.20;99.90;;;;;;5051205;28;20029;-70
2021/08/06 01:44:36;;;;;;;3.28;1.67;;;17.10;99.90;;;;;;5052515;28;20025;-70
2021/08/06 01:47:23;;;;;;;3.60;1.48;;;17.20;99.90;;;;;;5050786;28;20045;-71
2021/08/06 01:49:57;;;;;;;2.55;1.42;;;17.30;99.90;;;;;;5052636;28;20497;-70
2021/08/06 01:52:30;;;;;;;2.45;1.40;;;17.40;99.90;;;;;;5051165;28;20036;-70
2021/08/06 01:55:01;;;;;;;2.92;1.30;;;17.40;99.90;;;;;;5052307;28;20036;-70
2021/08/06 01:57:31;;;;;;;2.20;1.20;;;17.50;99.90;;;;;;5051022;28;20167;-70
2021/08/06 02:00:00;;;;;;;2.25;0.95;;;17.70;99.90;;;;;;5052230;28;20068;-70
2021/08/06 02:02:26;;;;;;;3.15;1.27;;;17.80;99.90;;;;;;5050644;28;20025;-71
2021/08/06 02:04:52;;;;;;;2.67;1.10;;;17.80;99.90;;;;;;5051042;28;20118;-70
2021/08/06 02:07:19;;;;;;;3.30;1.27;;;17.80;99.90;;;;;;5050687;28;20056;-70
2021/08/06 02:09:46;;;;;;;1.75;1.00;;;17.80;99.90;;;;;;5050941;28;20094;-70
2021/08/06 02:12:12;;;;;;;2.67;1.30;;;17.80;99.90;;;;;;5050594;28;20038;-70
2021/08/06 02:14:40;;;;;;;2.55;1.10;;;17.90;99.90;;;;;;5051743;28;20037;-71
2021/08/06 02:17:06;;;;;;;3.35;1.20;;;17.90;99.90;;;;;;5050986;28;20053;-71
2021/08/06 02:19:32;;;;;;;1.90;1.10;;;17.90;99.90;;;;;;5050818;28;20040;-70
2021/08/06 02:22:01;;;;;;;3.10;1.25;;;17.80;99.90;;;;;;5050864;28;20112;-70
2021/08/06 02:24:32;;;;;;;2.58;0.95;;;17.80;99.90;;;;;;5051884;28;20036;-71
2021/08/06 02:26:59;;;;;;;3.97;1.02;;;17.90;99.90;;;;;;5050927;28;20108;-70
2021/08/06 02:29:29;;;;;;;2.83;1.00;;;17.90;99.90;;;;;;5050521;28;20040;-70
2021/08/06 02:31:58;;;;;;;1.50;1.00;;;17.90;99.90;;;;;;5050612;28;20033;-70
2021/08/06 02:34:24;;;;;;;2.70;1.15;;;18.00;99.90;;;;;;5051296;28;20044;-70
2021/08/06 02:36:52;;;;;;;2.50;1.20;;;18.00;99.90;;;;;;5054594;28;20056;-70
2021/08/06 02:39:22;;;;;;;1.60;0.98;;;17.90;99.90;;;;;;5054610;28;20524;-70
2021/08/06 02:41:49;;;;;;;2.47;1.13;;;18.00;99.90;;;;;;5054807;28;20045;-70
2021/08/06 02:44:15;;;;;;;2.33;1.25;;;18.00;99.90;;;;;;5055370;28;20029;-70
2021/08/06 02:46:42;;;;;;;2.50;1.17;;;17.90;99.90;;;;;;5054259;28;20517;-70
2021/08/06 02:49:08;;;;;;;4.35;1.20;;;17.90;99.90;;;;;;5054104;28;20033;-70
2021/08/06 02:51:36;;;;;;;2.60;1.00;;;17.90;99.90;;;;;;5055726;28;20073;-70
2021/08/06 02:54:02;;;;;;;1.75;1.08;;;17.90;99.90;;;;;;5054357;28;20068;-70
2021/08/06 02:56:28;;;;;;;4.43;1.30;;;18.00;99.90;;;;;;5053886;28;20404;-70
2021/08/06 02:58:54;;;;;;;2.75;1.20;;;17.90;99.90;;;;;;5054011;28;20393;-70
2021/08/06 03:01:20;;;;;;;2.03;1.15;;;17.90;99.90;;;;;;5054003;28;20033;-71
2021/08/06 03:03:46;;;;;;;2.58;0.95;;;18.00;99.90;;;;;;5053953;28;20041;-70
2021/08/06 03:06:12;;;;;;;1.67;0.70;;;18.10;99.90;;;;;;5037788;28;20033;-70
2021/08/06 03:08:37;;;;;;;2.53;1.10;;;18.20;99.90;;;;;;5055044;28;20379;-70
2021/08/06 03:11:03;;;;;;;1.70;0.88;;;18.10;99.90;;;;;;5055487;28;20492;-70
2021/08/06 03:13:29;;;;;;;3.83;1.30;;;18.10;99.90;;;;;;5054880;28;20033;-69
2021/08/06 03:15:55;;;;;;;2.05;1.20;;;18.10;99.90;;;;;;5055410;28;20033;-70
2021/08/06 03:18:21;;;;;;;3.00;1.48;;;17.80;99.90;;;;;;5055171;28;20120;-70
2021/08/06 03:20:47;;;;;;;8.80;2.92;;;17.70;99.90;;;;;;5055188;28;20064;-70
2021/08/06 03:23:13;;;;;;;2.33;1.27;;;17.70;99.90;;;;;;5053677;28;20075;-70
2021/08/06 03:25:38;;;;;;;2.10;1.00;;;17.60;99.90;;;;;;5053633;28;20041;-70
2021/08/06 03:28:04;;;;;;;2.13;1.27;;;17.60;99.90;;;;;;5037014;28;20033;-70
2021/08/06 03:30:30;;;;;;;3.00;1.38;;;17.60;99.90;;;;;;5054578;28;20119;-70
2021/08/06 03:32:56;;;;;;;1.77;1.25;;;17.50;99.90;;;;;;5053774;28;20037;-70
2021/08/06 03:35:22;;;;;;;2.72;1.25;;;17.50;99.90;;;;;;5054521;28;20029;-70
2021/08/06 03:37:48;;;;;;;3.58;1.20;;;17.60;99.90;;;;;;5054621;28;20422;-70
2021/08/06 03:40:14;;;;;;;2.72;1.05;;;17.50;99.90;;;;;;5053096;28;20033;-69
2021/08/06 03:42:41;;;;;;;1.75;0.98;;;17.40;99.90;;;;;;5052226;28;20029;-69
2021/08/06 03:45:08;;;;;;;3.72;1.40;;;17.40;99.90;;;;;;5052575;28;20056;-69
2021/08/06 03:47:35;;;;;;;2.00;1.30;;;17.40;99.90;;;;;;5048445;28;20055;-68
2021/08/06 03:50:01;;;;;;;2.53;1.35;;;17.30;99.90;;;;;;5020068;28;20406;-68
2021/08/06 03:52:27;;;;;;;2.97;1.20;;;17.20;99.90;;;;;;5017035;28;20113;-68
2021/08/06 03:54:53;;;;;;;3.33;1.30;;;17.20;99.90;;;;;;5054390;28;20116;-68
2021/08/06 03:57:18;;;;;;;2.45;1.48;;;17.10;99.90;;;;;;5052813;28;20047;-69
2021/08/06 03:59:44;;;;;;;2.72;1.30;;;17.20;99.90;;;;;;5052904;28;20483;-70
2021/08/06 04:02:10;;;;;;;2.42;1.58;;;17.10;99.90;;;;;;5052776;28;20044;-69
2021/08/06 04:04:35;;;;;;;4.65;1.48;;;17.20;99.90;;;;;;5053983;28;20409;-69
2021/08/06 04:07:01;;;;;;;3.58;1.52;;;17.10;99.90;;;;;;5053970;28;20124;-68
2021/08/06 04:09:27;;;;;;;6.10;1.50;;;17.10;99.90;;;;;;5053634;28;20035;-68
2021/08/06 04:11:53;;;;;;;2.78;1.45;;;17.20;99.90;;;;;;5054050;28;20037;-68
2021/08/06 04:14:19;;;;;;;2.60;1.52;;;17.20;99.90;;;;;;5052623;28;20555;-69
2021/08/06 04:16:44;;;;;;;4.57;1.98;;;17.30;99.90;;;;;;5053736;28;20033;-70
2021/08/06 04:19:10;;;;;;;3.33;1.45;;;17.30;99.90;;;;;;5034668;28;20084;-68
2021/08/06 04:21:36;;;;;;;2.65;1.30;;;17.40;99.90;;;;;;5012624;28;20049;-68
2021/08/06 04:24:02;;;;;;;1.83;1.30;;;17.40;99.90;;;;;;5014270;28;20045;-70
2021/08/06 04:26:27;;;;;;;4.15;1.40;;;17.40;99.90;;;;;;5013641;28;20037;-68
2021/08/06 04:28:53;;;;;;;4.28;1.42;;;17.50;99.90;;;;;;5013642;28;20450;-69
2021/08/06 04:31:19;;;;;;;2.97;1.58;;;17.60;99.90;;;;;;5013797;28;20113;-69
2021/08/06 04:33:45;;;;;;;2.65;1.45;;;17.60;99.90;;;;;;5012436;28;20065;-69
2021/08/06 04:36:10;;;;;;;2.20;1.23;;;17.50;99.90;;;;;;5012447;28;20037;-69
2021/08/06 04:38:36;;;;;;;4.55;1.90;;;17.50;99.90;;;;;;5013361;28;20048;-68
2021/08/06 04:41:02;;;;;;;3.38;1.80;;;17.50;99.90;;;;;;5013610;28;20072;-69
2021/08/06 04:43:27;;;;;;;2.58;1.33;;;17.50;99.90;;;;;;5012116;28;20105;-68
2021/08/06 04:45:53;;;;;;;3.75;1.25;;;17.50;99.90;;;;;;5013232;28;20495;-68
2021/08/06 04:48:21;;;;;;;4.18;1.50;;;17.50;99.90;;;;;;5013067;28;20116;-70
2021/08/06 04:50:48;;;;;;;2.78;1.77;;;17.40;99.90;;;;;;5013264;28;20045;-71
2021/08/06 04:53:14;;;;;;;2.75;1.75;;;17.30;99.90;;;;;;5011959;28;20022;-70
2021/08/06 04:55:40;;;;;;;3.17;1.67;;;17.30;99.90;;;;;;5013133;28;20551;-69
2021/08/06 04:58:06;;;;;;;2.75;1.70;;;17.40;99.90;;;;;;5012429;28;20109;-69
2021/08/06 05:00:32;;;;;;;3.65;2.25;;;17.40;99.90;;;;;;5013242;28;20026;-69
2021/08/06 05:02:58;;;;;;;3.60;2.10;;;17.40;99.90;;;;;;5011922;28;20454;-69
2021/08/06 05:05:24;;;;;;;5.75;2.25;;;17.40;99.90;;;;;;5011984;28;20117;-71
2021/08/06 05:07:52;;;;;;;4.28;2.00;;;17.50;99.90;;;;;;5013111;28;20100;-69
2021/08/06 05:10:23;;;;;;;2.63;1.55;;;17.40;99.90;;;;;;5013086;28;20158;-68
2021/08/06 05:12:50;;;;;;;4.15;1.70;;;17.40;99.90;;;;;;5012302;28;20029;-67
2021/08/06 05:15:17;;;;;;;2.97;1.65;;;17.30;99.90;;;;;;5012966;28;20025;-67
2021/08/06 05:17:42;;;;;;;3.38;1.60;;;17.20;99.90;;;;;;5016137;28;20080;-67
2021/08/06 05:20:09;;;;;;;3.50;2.28;;;17.20;99.90;;;;;;5052677;28;20032;-68
2021/08/06 05:22:35;;;;;;;3.63;1.77;;;17.00;99.90;;;;;;5052444;28;20333;-68
2021/08/06 05:25:02;;;;;;;4.57;1.98;;;17.00;99.90;;;;;;5051249;28;20085;-68
2021/08/06 05:27:27;;;;;;;3.85;2.25;;;17.00;99.90;;;;;;5050978;28;20025;-68
2021/08/06 05:29:53;;;;;;;5.15;2.03;;;16.90;99.90;;;;;;5052657;28;20037;-68
2021/08/06 05:32:19;;;;;;;7.05;2.22;;;16.90;99.90;;;;;;5034493;28;20033;-69
2021/08/06 05:34:45;;;;;;;3.95;2.17;;;16.90;99.90;;;;;;5028321;28;20041;-67
2021/08/06 05:37:10;;;;;;;4.05;2.35;;;16.90;99.90;;;;;;5012637;28;20067;-67
2021/08/06 05:39:36;;;;;;;4.13;2.15;;;16.80;99.90;;;;;;5011765;28;20045;-67
2021/08/06 05:42:02;;;;;;;3.78;2.30;;;16.70;99.90;;;;;;5012618;28;20044;-67
2021/08/06 05:44:28;;;;;;;3.85;2.30;;;16.80;99.90;;;;;;5012802;28;20038;-67
2021/08/06 05:46:54;;;;;;;4.40;2.05;;;16.80;99.90;;;;;;5012501;28;20034;-67
2021/08/06 05:49:20;;;;;;;5.28;2.90;;;16.80;99.90;;;;;;5012727;28;20378;-67
2021/08/06 05:51:45;;;;;;;4.05;2.35;;;16.80;99.90;;;;;;5012856;28;20467;-67
2021/08/06 05:54:11;;;;;;;5.00;2.40;;;16.90;99.90;;;;;;5012854;28;20050;-67
2021/08/06 05:56:37;;;;;;;6.00;2.20;;;16.90;99.90;;;;;;5011099;28;20464;-67
2021/08/06 05:59:03;;;;;;;5.10;2.40;;;16.90;99.90;;;;;;5012442;28;20048;-67
2021/08/06 06:01:28;;;;;;;5.88;2.20;;;16.90;99.90;;;;;;5019220;28;20029;-67
2021/08/06 06:03:55;;;;;;;4.57;2.70;;;17.00;99.90;;;;;;5030889;28;20034;-67
2021/08/06 06:06:22;;;;;;;4.78;2.25;;;17.00;99.90;;;;;;5032122;28;20047;-68
2021/08/06 06:08:49;;;;;;;6.82;2.28;;;17.10;99.90;;;;;;5032051;28;20026;-68
2021/08/06 06:11:15;;;;;;;2.97;2.05;;;17.20;99.90;;;;;;5032377;28;20051;-68
2021/08/06 06:13:41;;;;;;;4.13;2.30;;;17.30;99.90;;;;;;5032199;28;20108;-68
2021/08/06 06:16:07;;;;;;;3.53;1.80;;;17.30;99.90;;;;;;5030783;28;20196;-68
2021/08/06 06:18:33;;;;;;;3.25;2.10;;;17.30;99.90;;;;;;5031649;28;20532;-68
2021/08/06 06:20:59;;;;;;;3.47;2.10;;;17.40;99.90;;;;;;5031179;28;20036;-67
2021/08/06 06:23:24;;;;;;;7.38;2.20;;;17.40;99.90;;;;;;5030909;28;20414;-67
2021/08/06 06:25:50;;;;;;;3.83;2.15;;;17.30;99.90;;;;;;5031050;28;20029;-67
2021/08/06 06:28:16;;;;;;;5.10;2.17;;;17.40;99.90;;;;;;5030646;28;20490;-67
2021/08/06 06:30:42;;;;;;;4.53;2.17;;;17.40;99.90;;;;;;5031696;28;20434;-67
2021/08/06 06:33:08;;;;;;;4.63;1.75;;;17.50;99.90;;;;;;5030595;28;20033;-67
2021/08/06 06:35:34;;;;;;;3.30;2.00;;;17.60;99.90;;;;;;5030499;28;20536;-67
2021/08/06 06:38:00;;;;;;;4.47;2.05;;;17.60;99.90;;;;;;5031653;28;20072;-67
2021/08/06 06:40:28;;;;;;;5.20;2.28;;;17.60;99.90;;;;;;5031746;28;20551;-67
2021/08/06 06:42:55;;;;;;;3.78;2.10;;;17.80;99.90;;;;;;5030803;28;20030;-67
2021/08/06 06:45:22;;;;;;;4.28;1.85;;;17.90;99.90;;;;;;5031955;28;20068;-66
2021/08/06 06:47:51;;;;;;;4.63;1.90;;;17.90;99.90;;;;;;5030274;28;20417;-67
2021/08/06 06:50:25;;;;;;;4.93;2.13;;;18.00;99.90;;;;;;5027537;28;20026;-67
2021/08/06 06:52:51;;;;;;;5.15;1.83;;;18.20;99.90;;;;;;5012335;28;20482;-66
2021/08/06 06:55:17;;;;;;;2.10;1.50;;;18.20;99.90;;;;;;5010884;28;20033;-68
2021/08/06 06:57:49;;;;;;;3.83;1.92;;;18.30;99.90;;;;;;5010798;28;20030;-68
2021/08/06 07:00:21;;;;;;;3.95;2.05;;;18.40;99.90;;;;;;5011127;28;20471;-68
2021/08/06 07:02:47;;;;;;;3.70;2.03;;;18.30;99.90;;;;;;5011971;28;20041;-68
2021/08/06 07:05:14;;;;;;;2.72;1.55;;;18.30;99.90;;;;;;5010936;28;20030;-69
2021/08/06 07:07:40;;;;;;;2.85;1.60;;;18.30;99.90;;;;;;5011894;28;20037;-70
2021/08/06 07:10:10;;;;;;;2.53;1.70;;;18.20;99.90;;;;;;5011931;28;20438;-69
2021/08/06 07:12:38;;;;;;;2.83;1.97;;;18.20;99.90;;;;;;5010505;28;20382;-68
2021/08/06 07:15:06;;;;;;;3.30;1.55;;;18.10;99.90;;;;;;5011830;28;20085;-70
2021/08/06 07:17:33;;;;;;;4.88;2.10;;;18.00;99.90;;;;;;5010233;28;20061;-69
2021/08/06 07:19:59;;;;;;;3.95;1.67;;;18.20;99.90;;;;;;5011928;28;20069;-69
2021/08/06 07:22:26;;;;;;;3.70;1.63;;;18.10;99.90;;;;;;5015205;28;20026;-69
2021/08/06 07:24:51;;;;;;;2.80;1.30;;;18.10;99.90;;;;;;5015496;28;20088;-69
2021/08/06 07:27:17;;;;;;;3.88;1.38;;;18.00;99.90;;;;;;5015431;28;20037;-71
2021/08/06 07:29:43;;;;;;;2.97;1.52;;;18.00;99.90;;;;;;5015091;28;20526;-67
2021/08/06 07:32:09;;;;;;;1.58;1.10;;;18.00;99.90;;;;;;5013890;28;20048;-69
2021/08/06 07:34:35;;;;;;;3.90;1.30;;;18.00;99.90;;;;;;5030013;28;20030;-68
2021/08/06 07:37:00;;;;;;;4.03;1.20;;;18.00;99.90;;;;;;5032808;28;20042;-69
2021/08/06 07:39:26;;;;;;;3.03;1.20;;;18.10;99.90;;;;;;5034317;28;20489;-68
2021/08/06 07:41:52;;;;;;;2.83;1.05;;;18.10;99.90;;;;;;5034877;28;20049;-69
2021/08/06 07:44:18;;;;;;;1.65;1.08;;;18.20;99.90;;;;;;5049773;28;20059;-69
2021/08/06 07:46:43;;;;;;;1.35;0.90;;;18.30;99.90;;;;;;5034219;28;20493;-68
2021/08/06 07:49:09;;;;;;;1.20;0.75;;;18.40;99.90;;;;;;5032947;28;20033;-68
2021/08/06 07:51:36;;;;;;;1.83;1.00;;;18.40;99.90;;;;;;5034186;28;20033;-68
2021/08/06 07:54:03;;;;;;;2.13;0.90;;;18.30;99.90;;;;;;5034636;28;20032;-68
2021/08/06 07:56:32;;;;;;;1.20;0.70;;;18.40;99.90;;;;;;5034572;28;20135;-70
2021/08/06 07:58:59;;;;;;;0.98;0.65;;;18.50;99.90;;;;;;5034290;28;20072;-68
2021/08/06 08:01:26;;;;;;;1.65;0.80;;;18.60;99.90;;;;;;5034348;28;20029;-69
2021/08/06 08:03:51;;;;;;;2.45;1.00;;;18.60;99.90;;;;;;5034817;28;20056;-69
2021/08/06 08:06:17;;;;;;;4.85;1.10;;;18.70;99.90;;;;;;5035918;28;20120;-69
2021/08/06 08:08:43;;;;;;;2.05;1.00;;;18.80;99.90;;;;;;5033802;28;20067;-69
2021/08/06 08:11:09;;;;;;;2.40;0.77;;;18.80;99.90;;;;;;5033231;28;20042;-68
2021/08/06 08:13:35;;;;;;;2.08;0.98;;;18.80;99.90;;;;;;5032953;28;20133;-69
2021/08/06 08:16:01;;;;;;;2.42;0.90;;;18.90;99.90;;;;;;5034085;28;20076;-68
2021/08/06 08:18:27;;;;;;;2.13;1.00;;;18.90;99.90;;;;;;5032279;28;20432;-69
2021/08/06 08:20:53;;;;;;;2.55;1.20;;;18.80;99.90;;;;;;5033951;28;20033;-69
2021/08/06 08:23:20;;;;;;;2.47;1.10;;;18.90;99.90;;;;;;5033801;28;20498;-70
2021/08/06 08:25:49;;;;;;;2.60;0.85;;;19.00;99.90;;;;;;5033985;28;20057;-69
2021/08/06 08:28:16;;;;;;;2.15;1.08;;;19.00;99.90;;;;;;5033706;28;20126;-69
2021/08/06 08:30:42;;;;;;;1.52;0.82;;;19.20;99.90;;;;;;5033832;28;20059;-68
2021/08/06 08:33:08;;;;;;;1.85;0.80;;;19.30;99.90;;;;;;5031100;28;20037;-69
2021/08/06 08:35:34;;;;;;;1.88;0.90;;;19.40;99.90;;;;;;5033771;28;20029;-68
2021/08/06 08:38:01;;;;;;;2.33;1.13;;;19.50;99.90;;;;;;5033627;28;20044;-69
2021/08/06 08:40:29;;;;;;;3.45;1.00;;;19.70;99.90;;;;;;5033797;28;20485;-69
2021/08/06 08:42:54;;;;;;;1.45;0.82;;;20.00;99.90;;;;;;5032660;28;20124;-68
2021/08/06 08:45:20;;;;;;;3.53;1.20;;;20.20;99.90;;;;;;5033530;28;20113;-69
2021/08/06 08:47:48;;;;;;;3.28;1.00;;;20.20;99.90;;;;;;5033734;28;20046;-69
2021/08/06 08:50:15;;;;;;;1.40;0.80;;;20.30;99.90;;;;;;5033379;28;20064;-69
2021/08/06 08:52:41;;;;;;;2.63;1.10;;;20.40;99.90;;;;;;5033386;28;20091;-69
2021/08/06 08:55:09;;;;;;;2.45;0.80;;;20.30;99.90;;;;;;5032229;28;20032;-69
2021/08/06 08:57:35;;;;;;;2.20;1.00;;;20.30;99.90;;;;;;5032662;28;20205;-68
2021/08/06 09:00:03;;;;;;;2.25;0.80;;;20.30;99.90;;;;;;5015499;28;20760;-68
2021/08/06 09:02:29;;;;;;;1.55;0.77;;;20.40;99.90;;;;;;5013282;28;20114;-67
2021/08/06 09:05:17;;;;;;;1.35;0.80;;;20.40;99.90;;;;;;5013257;28;20037;-68
2021/08/06 09:07:44;;;;;;;2.58;1.27;;;20.30;99.90;;;;;;5013212;28;20057;-68
2021/08/06 09:10:16;;;;;;;2.67;0.82;;;20.40;99.90;;;;;;5013424;28;20422;-66
2021/08/06 09:13:03;;;;;;;2.90;1.10;;;20.70;99.90;;;;;;5011979;28;20038;-67
2021/08/06 09:15:53;;;;;;;4.05;0.90;;;20.80;99.90;;;;;;5011679;28;20038;-68
2021/08/06 09:18:25;;;;;;;3.13;0.85;;;20.70;99.90;;;;;;5013022;28;20545;-68
2021/08/06 09:20:56;;;;;;;1.98;0.90;;;20.60;99.90;;;;;;5011427;28;20046;-68
2021/08/06 09:23:56;;;;;;;4.88;1.27;;;20.50;99.90;;;;;;5012232;28;20025;-69
2021/08/06 09:26:40;;;;;;;4.10;1.13;;;20.40;99.90;;;;;;5011759;28;20057;-69
2021/08/06 09:29:19;;;;;;;4.05;1.15;;;20.40;99.90;;;;;;5013088;28;20056;-70
2021/08/06 09:31:50;;;;;;;2.90;1.17;;;20.40;99.90;;;;;;5012825;28;20036;-69
2021/08/06 09:34:37;;;;;;;2.10;1.10;;;20.40;99.90;;;;;;5012781;28;20042;-69
2021/08/06 09:37:23;;;;;;;2.05;0.70;;;20.50;99.90;;;;;;5011671;28;20528;-69
2021/08/06 09:39:55;;;;;;;1.88;1.00;;;20.50;99.90;;;;;;5012806;28;20488;-70
2021/08/06 09:42:23;;;;;;;2.85;0.90;;;20.40;99.90;;;;;;5011524;28;20030;-69
2021/08/06 09:45:07;;;;;;;2.05;1.00;;;20.40;99.90;;;;;;5012385;28;20071;-69
2021/08/06 09:47:36;;;;;;;2.08;0.80;;;20.30;99.90;;;;;;5012402;28;20073;-69
2021/08/06 09:50:12;;;;;;;2.05;0.70;;;20.40;99.90;;;;;;5011157;28;20030;-70
2021/08/06 09:52:44;;;;;;;2.10;0.55;;;20.50;99.90;;;;;;5012891;28;20034;-71
2021/08/06 09:55:27;;;;;;;2.05;0.63;;;20.60;99.90;;;;;;5011272;28;20195;-68
2021/08/06 09:57:55;;;;;;;3.65;1.02;;;20.50;99.90;;;;;;5012506;28;20041;-68
2021/08/06 10:00:23;;;;;;;1.00;0.70;;;20.60;99.90;;;;;;5011284;28;20121;-69
2021/08/06 10:02:50;;;;;;;2.38;0.60;;;20.60;99.90;;;;;;5012082;28;20423;-68
2021/08/06 10:05:19;;;;;;;2.88;0.68;;;20.70;99.90;;;;;;5011049;28;20475;-68
2021/08/06 10:07:52;;;;;;;1.10;0.45;;;20.50;99.90;;;;;;5011040;28;20437;-69
2021/08/06 10:10:31;;;;;;;1.75;0.70;;;20.40;99.90;;;;;;5011301;28;20030;-69
2021/08/06 10:12:59;;;;;;;1.60;0.63;;;20.30;99.90;;;;;;5021654;28;20037;-70
2021/08/06 10:15:27;;;;;;;2.97;0.73;;;20.40;99.90;;;;;;5031968;28;20489;-70
2021/08/06 10:17:56;;;;;;;1.38;0.60;;;20.40;99.90;;;;;;5030417;28;20033;-70
2021/08/06 10:20:25;;;;;;;2.80;1.10;;;20.70;99.90;;;;;;5032206;28;20063;-70
2021/08/06 10:22:52;;;;;;;1.67;0.70;;;20.90;99.90;;;;;;5031870;28;20037;-69
2021/08/06 10:25:21;;;;;;;1.65;0.90;;;21.10;99.90;;;;;;5030761;28;20025;-69
2021/08/06 10:27:49;;;;;;;2.47;0.98;;;21.20;99.90;;;;;;5030777;28;20041;-70
2021/08/06 10:30:22;;;;;;;3.58;0.73;;;21.20;99.90;;;;;;5031813;28;20037;-68
2021/08/06 10:33:09;;;;;;;3.35;0.95;;;21.40;99.90;;;;;;5031961;28;20073;-68
2021/08/06 10:35:47;;;;;;;4.20;0.90;;;21.50;99.90;;;;;;5032046;28;20053;-70
2021/08/06 10:38:43;;;;;;;1.63;0.70;;;21.60;99.90;;;;;;5014127;28;20068;-69
2021/08/06 10:41:23;;;;;;;2.10;0.73;;;21.70;99.90;;;;;;5030457;28;20041;-70
2021/08/06 10:44:06;;;;;;;2.63;0.80;;;21.90;99.90;;;;;;5032005;28;20037;-68
2021/08/06 10:47:06;;;;;;;2.38;0.75;;;21.90;99.90;;;;;;5030434;28;20129;-69
2021/08/06 10:49:33;;;;;;;2.75;0.77;;;22.20;99.90;;;;;;5031870;28;20482;-69
2021/08/06 10:52:21;;;;;;;3.47;1.15;;;22.40;99.90;;;;;;5030369;28;20546;-69
2021/08/06 10:54:48;;;;;;;3.50;0.70;;;22.20;99.90;;;;;;5030402;28;20044;-67
2021/08/06 10:57:28;;;;;;;3.10;0.80;;;22.00;99.90;;;;;;5051102;28;20026;-68
2021/08/06 10:59:54;;;;;;;4.97;1.27;;;21.70;99.90;;;;;;5035293;28;20390;-68
2021/08/06 11:02:42;;;;;;;2.90;1.00;;;21.70;99.90;;;;;;5035506;28;20124;-69
2021/08/06 11:05:38;;;;;;;2.65;1.00;;;21.80;99.90;;;;;;5034117;28;20033;-71
2021/08/06 11:08:49;;;;;;;2.72;0.82;;;21.70;99.90;;;;;;5034720;28;20051;-68
2021/08/06 11:11:40;;;;;;;5.97;1.58;;;21.70;99.90;;;;;;5034954;28;20089;-68
2021/08/06 11:14:06;;;;;;;1.90;0.93;;;21.70;99.90;;;;;;5033848;28;20033;-68
2021/08/06 11:16:32;;;;;;;4.32;0.95;;;21.60;99.90;;;;;;5035353;28;20048;-67
2021/08/06 11:18:59;;;;;;;2.92;0.80;;;21.30;99.90;;;;;;5035058;28;20033;-68
2021/08/06 11:21:39;;;;;;;0.73;0.32;;;21.10;99.90;;;;;;5033899;28;20030;-66
2021/08/06 11:24:05;;;;;;;1.08;0.35;;;20.80;99.90;;;;;;5035011;28;20048;-67
2021/08/06 11:26:33;;;;;;;1.08;0.40;;;20.70;99.90;;;;;;5034515;28;20406;-67
2021/08/06 11:29:12;;;;;;;1.25;0.40;;;20.70;99.90;;;;;;5033827;28;20037;-68
2021/08/06 11:31:38;;;;;;;3.85;0.60;;;21.00;99.90;;;;;;5034777;28;20026;-68
2021/08/06 11:34:04;;;;;;;1.70;0.55;;;21.20;99.90;;;;;;5033331;28;20040;-68
2021/08/06 11:36:31;;;;;;;1.55;0.50;;;21.20;99.90;;;;;;5033398;28;20025;-68
2021/08/06 11:39:02;;;;;;;3.20;0.60;;;21.20;99.90;;;;;;5034452;28;20044;-68
2021/08/06 11:41:30;;;;;;;0.88;0.43;;;21.30;99.90;;;;;;5017698;28;20029;-67
2021/08/06 11:43:57;;;;;;;0.88;0.40;;;21.40;99.90;;;;;;5033500;28;20033;-67
2021/08/06 11:46:23;;;;;;;2.70;0.60;;;21.20;99.90;;;;;;5032982;28;20048;-67
2021/08/06 11:49:00;;;;;;;2.10;0.60;;;21.30;99.90;;;;;;5033021;28;20033;-68
2021/08/06 11:51:26;;;;;;;2.30;0.85;;;21.50;99.90;;;;;;5033014;28;20025;-68
2021/08/06 11:53:52;;;;;;;2.90;1.20;;;21.50;99.90;;;;;;5032280;28;20429;-68
2021/08/06 11:56:21;;;;;;;1.98;0.65;;;21.60;99.90;;;;;;5033094;28;20041;-68
2021/08/06 11:58:47;;;;;;;0.57;0.38;;;22.10;99.90;;;;;;5033335;28;20025;-67
2021/08/06 12:01:22;;;;;;;1.92;0.50;;;22.50;99.90;;;;;;5031406;28;20032;-68
2021/08/06 12:03:54;;;;;;;1.75;0.50;;;22.50;99.90;;;;;;5032922;28;20033;-67
2021/08/06 12:06:22;;;;;;;4.07;1.45;;;22.60;99.90;;;;;;5032769;28;20025;-67
2021/08/06 12:08:51;;;;;;;2.15;0.43;;;22.30;99.90;;;;;;5033730;28;20029;-67
2021/08/06 12:11:23;;;;;;;1.90;0.73;;;22.00;99.90;;;;;;5034128;28;20060;-67
2021/08/06 12:13:54;;;;;;;1.38;0.70;;;21.90;99.90;;;;;;5034043;28;20025;-66
2021/08/06 12:16:24;;;;;;;2.67;0.98;;;21.90;99.90;;;;;;5032770;28;20040;-66
2021/08/06 12:18:52;;;;;;;1.15;0.60;;;21.70;99.90;;;;;;5033517;28;20033;-69
2021/08/06 12:21:22;;;;;;;2.25;0.60;;;21.70;99.90;;;;;;5034082;28;20030;-67
2021/08/06 12:24:01;;;;;;;3.70;0.80;;;21.60;99.90;;;;;;5015265;28;20126;-67
2021/08/06 12:26:35;;;;;;;1.15;0.52;;;21.50;99.90;;;;;;5014044;28;20034;-67
2021/08/06 12:29:21;;;;;;;2.78;0.68;;;21.30;99.90;;;;;;5014164;28;20034;-68
2021/08/06 12:31:59;;;;;;;2.53;0.70;;;21.30;99.90;;;;;;5012930;28;20467;-66
2021/08/06 12:34:49;;;;;;;3.08;1.00;;;21.20;99.90;;;;;;5013991;28;20065;-66
2021/08/06 12:37:18;;;;;;;2.73;0.50;;;21.20;99.90;;;;;;5012857;28;20041;-66
2021/08/06 12:39:47;;;;;;;2.97;0.50;;;21.30;99.90;;;;;;5012682;28;20299;-66
2021/08/06 12:42:20;;;;;;;3.30;0.75;;;21.50;99.90;;;;;;5013324;28;20042;-67
2021/08/06 12:45:04;;;;;;;3.72;0.70;;;21.50;99.90;;;;;;5013668;28;20557;-68
2021/08/06 12:48:05;;;;;;;3.75;0.93;;;21.80;99.90;;;;;;5013326;28;20056;-67
2021/08/06 12:50:31;;;;;;;;;;;21.90;99.90;;;;;;5011692;28;20530;-67
2021/08/06 12:53:04;;;;;;;3.40;0.60;;;21.80;99.90;;;;;;5024656;28;19913;-66
2021/08/06 12:55:31;;;;;;;2.42;0.60;;;21.90;99.90;;;;;;5028040;28;20167;-69
2021/08/06 12:58:00;;;;;;;2.13;0.65;;;21.90;99.90;;;;;;5012627;28;20026;-67
2021/08/06 13:00:50;;;;;;;2.50;1.20;;;22.00;99.90;;;;;;4966951;28;20488;-66